Segovia, Texas
Current Conditions -  °F | °C
As of 8:51 PM on Wednesday 26 Nov 2014 (Local Time) from KJCT Reporting Station
Clear Clear  
Wind Chill: 50°   Ceiling: Unl
Heat Index: 50°   Visibility: 9mi
Dew Point: 30°   Wind: 3mph
Humidity: 46%   Direction: 90°E
Pressure: 30.33"   Gusts: NA
Location:  30.4083°N, 99.5794°W
Report Text: KJCT 270251Z AUTO 09003KT 9SM CLR 10/M01 A3033 RMK AO2 SLP255 T01001011 51030
Loading
Personal Weather Stations






























Interactive Weather Map New forecast layout! Learn more

10-Day Weather Forecast

Advertisements
Track Severe Weather on mobile